Time,TemperatureF,DewpointF,PressureIn,WindDirection,WindDirectionDegrees,WindSpeedMPH,WindSpeedGustMPH,Humidity,HourlyPrecipIn,Conditions,Clouds,dailyrainin,SoftwareType,DateUTC
2013-10-03 00:11:00,36.4,35.0,30.01,WNW,301,0.0,-999.0,93,-99.99,,,0.00,weatherlink.com 1.10,2013-10-03 07:11:00,
2013-10-03 00:26:00,37.1,35.0,30.01,WNW,294,1.0,-999.0,92,-99.99,,,0.00,weatherlink.com 1.10,2013-10-03 07:26:00,
2013-10-03 00:41:00,37.9,36.0,30.02,WNW,294,0.0,-999.0,91,-99.99,,,0.00,weatherlink.com 1.10,2013-10-03 07:41:00,
2013-10-03 00:56:00,37.9,35.0,30.03,WNW,294,0.0,-999.0,90,-99.99,,,0.00,weatherlink.com 1.10,2013-10-03 07:56:00,
2013-10-03 01:11:00,37.5,35.0,30.03,WNW,294,0.0,-999.0,91,-99.99,,,0.00,weatherlink.com 1.10,2013-10-03 08:11:00,
2013-10-03 01:26:00,37.5,35.0,30.04,WNW,294,0.0,-999.0,91,-99.99,,,0.00,weatherlink.com 1.10,2013-10-03 08:26:00,
2013-10-03 01:41:00,38.1,36.0,30.04,WNW,294,3.0,-999.0,93,-99.99,,,0.00,weatherlink.com 1.10,2013-10-03 08:41:00,
2013-10-03 01:56:00,40.7,37.0,30.04,WNW,296,2.0,-999.0,87,-99.99,,,0.00,weatherlink.com 1.10,2013-10-03 08:56:00,
2013-10-03 02:11:00,41.1,37.0,30.04,West,281,4.0,-999.0,86,-99.99,,,0.00,weatherlink.com 1.10,2013-10-03 09:11:00,
2013-10-03 02:26:00,40.8,37.0,30.05,WNW,298,1.0,-999.0,87,-99.99,,,0.00,weatherlink.com 1.10,2013-10-03 09:26:00,
2013-10-03 02:41:00,40.7,37.0,30.05,WNW,292,3.0,-999.0,87,-99.99,,,0.00,weatherlink.com 1.10,2013-10-03 09:41:00,
2013-10-03 02:56:00,40.5,37.0,30.05,WNW,286,1.0,-999.0,87,-99.99,,,0.00,weatherlink.com 1.10,2013-10-03 09:56:00,
2013-10-03 03:11:00,40.4,37.0,30.06,West,277,1.0,-999.0,87,-99.99,,,0.00,weatherlink.com 1.10,2013-10-03 10:11:00,
2013-10-03 03:26:00,40.1,37.0,30.06,NW,304,5.0,-999.0,88,-99.99,,,0.00,weatherlink.com 1.10,2013-10-03 10:26:00,
2013-10-03 03:41:00,39.7,37.0,30.07,WNW,294,3.0,-999.0,89,-99.99,,,0.00,weatherlink.com 1.10,2013-10-03 10:41:00,
2013-10-03 03:56:00,39.6,37.0,30.07,West,281,12.0,-999.0,89,-99.99,,,0.00,weatherlink.com 1.10,2013-10-03 10:56:00,
2013-10-03 04:11:00,39.5,37.0,30.07,NW,317,8.0,-999.0,90,-99.99,,,0.00,weatherlink.com 1.10,2013-10-03 11:11:00,
2013-10-03 04:26:00,39.4,37.0,30.08,West,277,0.0,-999.0,90,-99.99,,,0.00,weatherlink.com 1.10,2013-10-03 11:26:00,
2013-10-03 04:41:00,39.1,37.0,30.08,West,277,5.0,-999.0,90,-99.99,,,0.00,weatherlink.com 1.10,2013-10-03 11:41:00,
2013-10-03 04:56:00,38.6,36.0,30.08,NW,304,2.0,-999.0,91,-99.99,,,0.00,weatherlink.com 1.10,2013-10-03 11:56:00,
2013-10-03 05:11:00,38.3,36.0,30.09,NW,313,0.0,-999.0,91,-99.99,,,0.00,weatherlink.com 1.10,2013-10-03 12:11:00,
2013-10-03 05:26:00,38.1,36.0,30.09,WNW,296,0.0,-999.0,92,-99.99,,,0.00,weatherlink.com 1.10,2013-10-03 12:26:00,
2013-10-03 05:41:00,38.2,36.0,30.10,WNW,296,0.0,-999.0,92,-99.99,,,0.00,weatherlink.com 1.10,2013-10-03 12:41:00,
2013-10-03 05:56:00,37.9,36.0,30.11,WNW,287,5.0,-999.0,92,-99.99,,,0.00,weatherlink.com 1.10,2013-10-03 12:56:00,
2013-10-03 06:11:00,37.8,36.0,30.11,WNW,298,2.0,-999.0,92,-99.99,,,0.00,weatherlink.com 1.10,2013-10-03 13:11:00,
2013-10-03 06:26:00,37.5,35.0,30.12,WNW,298,0.0,-999.0,92,-99.99,,,0.00,weatherlink.com 1.10,2013-10-03 13:26:00,
2013-10-03 06:41:00,37.3,36.0,30.13,WNW,300,2.0,-999.0,93,-99.99,,,0.00,weatherlink.com 1.10,2013-10-03 13:41:00,
2013-10-03 06:57:00,37.4,36.0,30.14,WNW,300,0.0,-999.0,93,-99.99,,,0.00,weatherlink.com 1.10,2013-10-03 13:57:00,
2013-10-03 07:12:00,37.0,35.0,30.14,WNW,300,0.0,-999.0,93,-99.99,,,0.00,weatherlink.com 1.10,2013-10-03 14:12:00,
2013-10-03 07:27:00,37.1,36.0,30.15,WNW,300,0.0,-999.0,94,-99.99,,,0.00,weatherlink.com 1.10,2013-10-03 14:27:00,
2013-10-03 07:42:00,37.4,36.0,30.16,WNW,300,0.0,-999.0,94,-99.99,,,0.00,weatherlink.com 1.10,2013-10-03 14:42:00,
2013-10-03 07:57:00,37.5,36.0,30.17,NW,313,3.0,-999.0,93,-99.99,,,0.00,weatherlink.com 1.10,2013-10-03 14:57:00,
2013-10-03 08:12:00,37.8,36.0,30.18,NW,314,2.0,-999.0,93,-99.99,,,0.00,weatherlink.com 1.10,2013-10-03 15:12:00,
2013-10-03 08:27:00,38.2,36.0,30.19,WNW,288,2.0,-999.0,93,-99.99,,,0.00,weatherlink.com 1.10,2013-10-03 15:27:00,
2013-10-03 08:42:00,38.4,36.0,30.19,NW,305,5.0,-999.0,92,-99.99,,,0.00,weatherlink.com 1.10,2013-10-03 15:42:00,
2013-10-03 08:57:00,38.5,36.0,30.20,WNW,294,3.0,-999.0,91,-99.99,,,0.00,weatherlink.com 1.10,2013-10-03 15:57:00,
2013-10-03 09:12:00,38.8,36.0,30.20,WNW,293,5.0,-999.0,91,-99.99,,,0.00,weatherlink.com 1.10,2013-10-03 16:12:00,
2013-10-03 09:27:00,38.9,37.0,30.21,NW,312,4.0,-999.0,91,-99.99,,,0.00,weatherlink.com 1.10,2013-10-03 16:27:00,
2013-10-03 09:42:00,39.0,36.0,30.22,WNW,291,1.0,-999.0,90,-99.99,,,0.00,weatherlink.com 1.10,2013-10-03 16:42:00,
2013-10-03 09:57:00,39.0,36.0,30.22,WNW,297,1.0,-999.0,90,-99.99,,,0.00,weatherlink.com 1.10,2013-10-03 16:57:00,
2013-10-03 10:12:00,39.4,37.0,30.23,West,278,4.0,-999.0,90,-99.99,,,0.00,weatherlink.com 1.10,2013-10-03 17:12:00,
2013-10-03 10:27:00,40.2,37.0,30.23,WNW,288,4.0,-999.0,89,-99.99,,,0.00,weatherlink.com 1.10,2013-10-03 17:27:00,
2013-10-03 10:42:00,40.4,37.0,30.23,WNW,294,2.0,-999.0,88,-99.99,,,0.00,weatherlink.com 1.10,2013-10-03 17:42:00,
2013-10-03 10:57:00,41.1,37.0,30.24,SW,229,0.0,-999.0,86,-99.99,,,0.00,weatherlink.com 1.10,2013-10-03 17:57:00,
2013-10-03 11:12:00,41.8,38.0,30.24,WSW,244,0.0,-999.0,85,-99.99,,,0.00,weatherlink.com 1.10,2013-10-03 18:12:00,
2013-10-03 11:27:00,43.7,39.0,30.24,WNW,292,2.0,-999.0,83,-99.99,,,0.00,weatherlink.com 1.10,2013-10-03 18:27:00,
2013-10-03 11:42:00,45.0,39.0,30.24,WNW,295,3.0,-999.0,79,-99.99,,,0.00,weatherlink.com 1.10,2013-10-03 18:42:00,
2013-10-03 11:57:00,46.3,39.0,30.25,SSW,213,2.0,-999.0,77,-99.99,,,0.00,weatherlink.com 1.10,2013-10-03 18:57:00,
2013-10-03 12:12:00,47.0,38.0,30.25,SW,222,1.0,-999.0,72,-99.99,,,0.00,weatherlink.com 1.10,2013-10-03 19:12:00,
2013-10-03 12:27:00,48.0,39.0,30.25,West,268,3.0,-999.0,71,-99.99,,,0.00,weatherlink.com 1.10,2013-10-03 19:27:00,
2013-10-03 12:42:00,49.0,40.0,30.25,West,260,3.0,-999.0,72,-99.99,,,0.00,weatherlink.com 1.10,2013-10-03 19:42:00,
2013-10-03 12:57:00,50.0,40.0,30.25,WNW,290,10.0,-999.0,69,-99.99,,,0.00,weatherlink.com 1.10,2013-10-03 19:57:00,
2013-10-03 13:12:00,50.0,40.0,30.25,NW,310,4.0,-999.0,69,-99.99,,,0.00,weatherlink.com 1.10,2013-10-03 20:12:00,
2013-10-03 13:27:00,50.6,39.0,30.25,WNW,285,6.0,-999.0,64,-99.99,,,0.00,weatherlink.com 1.10,2013-10-03 20:27:00,
2013-10-03 13:42:00,51.5,40.0,30.25,NW,319,4.0,-999.0,64,-99.99,,,0.00,weatherlink.com 1.10,2013-10-03 20:42:00,
2013-10-03 13:57:00,50.6,39.0,30.25,WNW,303,3.0,-999.0,65,-99.99,,,0.00,weatherlink.com 1.10,2013-10-03 20:57:00,
2013-10-03 14:12:00,51.7,40.0,30.25,WNW,288,9.0,-999.0,64,-99.99,,,0.00,weatherlink.com 1.10,2013-10-03 21:12:00,
2013-10-03 14:28:00,49.9,39.0,30.26,WNW,300,6.0,-999.0,66,-99.99,,,0.00,weatherlink.com 1.10,2013-10-03 21:28:00,
2013-10-03 14:43:00,49.2,39.0,30.27,WNW,290,3.0,-999.0,68,-99.99,,,0.00,weatherlink.com 1.10,2013-10-03 21:43:00,
2013-10-03 14:58:00,50.1,39.0,30.27,WNW,289,5.0,-999.0,67,-99.99,,,0.00,weatherlink.com 1.10,2013-10-03 21:58:00,
2013-10-03 15:13:00,50.4,39.0,30.28,West,281,5.0,-999.0,66,-99.99,,,0.00,weatherlink.com 1.10,2013-10-03 22:13:00,
2013-10-03 15:28:00,50.5,40.0,30.28,NW,320,7.0,-999.0,67,-99.99,,,0.00,weatherlink.com 1.10,2013-10-03 22:28:00,
2013-10-03 15:43:00,51.7,39.0,30.28,WNW,285,8.0,-999.0,63,-99.99,,,0.00,weatherlink.com 1.10,2013-10-03 22:43:00,
2013-10-03 15:58:00,50.3,40.0,30.29,WNW,296,4.0,-999.0,68,-99.99,,,0.00,weatherlink.com 1.10,2013-10-03 22:58:00,
2013-10-03 16:13:00,49.6,39.0,30.29,WNW,296,1.0,-999.0,68,-99.99,,,0.00,weatherlink.com 1.10,2013-10-03 23:13:00,
2013-10-03 16:28:00,50.4,40.0,30.30,West,278,6.0,-999.0,68,-99.99,,,0.00,weatherlink.com 1.10,2013-10-03 23:28:00,
2013-10-03 16:43:00,49.2,39.0,30.30,WNW,289,5.0,-999.0,68,-99.99,,,0.00,weatherlink.com 1.10,2013-10-03 23:43:00,
2013-10-03 16:58:00,48.6,40.0,30.30,West,279,7.0,-999.0,72,-99.99,,,0.00,weatherlink.com 1.10,2013-10-03 23:58:00,
2013-10-03 17:13:00,49.0,40.0,30.31,WNW,302,1.0,-999.0,72,-99.99,,,0.00,weatherlink.com 1.10,2013-10-04 00:13:00,
2013-10-03 17:28:00,48.0,40.0,30.31,WNW,285,2.0,-999.0,73,-99.99,,,0.00,weatherlink.com 1.10,2013-10-04 00:28:00,
2013-10-03 17:43:00,47.2,39.0,30.32,WNW,290,0.0,-999.0,74,-99.99,,,0.00,weatherlink.com 1.10,2013-10-04 00:43:00,
2013-10-03 17:58:00,46.2,39.0,30.32,WNW,300,2.0,-999.0,76,-99.99,,,0.00,weatherlink.com 1.10,2013-10-04 00:58:00,
2013-10-03 18:13:00,45.2,39.0,30.33,WNW,302,4.0,-999.0,78,-99.99,,,0.00,weatherlink.com 1.10,2013-10-04 01:13:00,
2013-10-03 18:28:00,44.5,38.0,30.34,WNW,303,0.0,-999.0,79,-99.99,,,0.00,weatherlink.com 1.10,2013-10-04 01:28:00,
2013-10-03 18:43:00,44.1,39.0,30.34,WNW,303,0.0,-999.0,82,-99.99,,,0.00,weatherlink.com 1.10,2013-10-04 01:43:00,
2013-10-03 18:58:00,43.2,38.0,30.35,WNW,303,0.0,-999.0,82,-99.99,,,0.00,weatherlink.com 1.10,2013-10-04 01:58:00,
2013-10-03 19:13:00,42.4,38.0,30.36,WNW,303,0.0,-999.0,84,-99.99,,,0.00,weatherlink.com 1.10,2013-10-04 02:13:00,
2013-10-03 19:28:00,41.3,37.0,30.37,WNW,303,0.0,-999.0,85,-99.99,,,0.00,weatherlink.com 1.10,2013-10-04 02:28:00,
2013-10-03 19:43:00,40.0,37.0,30.38,WNW,303,0.0,-999.0,88,-99.99,,,0.00,weatherlink.com 1.10,2013-10-04 02:43:00,
2013-10-03 19:58:00,39.1,36.0,30.38,WNW,303,0.0,-999.0,88,-99.99,,,0.00,weatherlink.com 1.10,2013-10-04 02:58:00,
2013-10-03 20:13:00,38.0,35.0,30.39,WNW,303,0.0,-999.0,90,-99.99,,,0.00,weatherlink.com 1.10,2013-10-04 03:13:00,
2013-10-03 20:28:00,37.5,35.0,30.39,WNW,303,0.0,-999.0,91,-99.99,,,0.00,weatherlink.com 1.10,2013-10-04 03:28:00,
2013-10-03 20:43:00,36.7,34.0,30.40,WNW,303,0.0,-999.0,91,-99.99,,,0.00,weatherlink.com 1.10,2013-10-04 03:43:00,
2013-10-03 21:43:00,35.4,34.0,30.41,WNW,303,0.0,-999.0,94,-99.99,,,0.00,weatherlink.com 1.10,2013-10-04 04:43:00,
2013-10-03 21:58:00,35.3,34.0,30.42,WNW,303,0.0,-999.0,94,-99.99,,,0.00,weatherlink.com 1.10,2013-10-04 04:58:00,
2013-10-03 22:14:00,34.4,33.0,30.42,WNW,303,0.0,-999.0,93,-99.99,,,0.00,weatherlink.com 1.10,2013-10-04 05:14:00,
2013-10-03 22:28:00,34.0,33.0,30.43,WNW,303,0.0,-999.0,94,-99.99,,,0.00,weatherlink.com 1.10,2013-10-04 05:28:00,
2013-10-03 22:43:00,33.6,32.0,30.43,WNW,303,0.0,-999.0,94,-99.99,,,0.00,weatherlink.com 1.10,2013-10-04 05:43:00,
2013-10-03 22:58:00,32.8,31.0,30.44,WNW,303,0.0,-999.0,94,-99.99,,,0.00,weatherlink.com 1.10,2013-10-04 05:58:00,
2013-10-03 23:14:00,32.5,31.0,30.44,WNW,303,0.0,-999.0,94,-99.99,,,0.00,weatherlink.com 1.10,2013-10-04 06:14:00,
2013-10-03 23:29:00,31.4,30.0,30.45,WNW,303,0.0,-999.0,93,-99.99,,,0.00,weatherlink.com 1.10,2013-10-04 06:29:00,
2013-10-03 23:44:00,30.7,29.0,30.45,WNW,303,0.0,-999.0,94,-99.99,,,0.00,weatherlink.com 1.10,2013-10-04 06:44:00,
2013-10-03 23:59:00,30.6,29.0,30.45,WNW,303,0.0,-999.0,94,-99.99,,,0.00,weatherlink.com 1.10,2013-10-04 06:59:00,